Time;durP1;ratioP1;P1;durP2;ratioP2;P2;SDS_P1;SDS_P2;PMS_P1;PMS_P2;Temp;Humidity;BMP_temperature;BMP_pressure;BME280_temperature;BME280_humidity;BME280_pressure;Samples;Min_cycle;Max_cycle;Signal;HPM_P1;HPM_P2
2022/03/02 00:01:09;;;;;;;1.33;0.32;;;11.90;99.90;;;;;;4996728;28;20022;-73
2022/03/02 00:03:35;;;;;;;0.13;0.13;;;11.80;99.90;;;;;;4997013;28;20026;-73
2022/03/02 00:06:02;;;;;;;0.50;0.40;;;11.80;99.90;;;;;;4997288;28;20105;-73
2022/03/02 00:08:27;;;;;;;0.17;0.15;;;11.80;99.90;;;;;;4997145;28;20129;-73
2022/03/02 00:10:53;;;;;;;2.88;1.67;;;11.80;99.90;;;;;;4997434;28;20101;-73
2022/03/02 00:13:19;;;;;;;1.05;0.95;;;11.70;99.90;;;;;;4996779;28;20032;-73
2022/03/02 00:15:45;;;;;;;6.45;0.43;;;11.80;99.90;;;;;;4996424;28;20026;-73
2022/03/02 00:18:10;;;;;;;0.00;0.00;;;11.70;99.90;;;;;;4996650;28;20081;-72
2022/03/02 00:20:36;;;;;;;0.80;0.32;;;11.70;99.90;;;;;;4995693;28;20030;-73
2022/03/02 00:23:02;;;;;;;0.35;0.20;;;11.70;99.90;;;;;;4996937;28;20026;-73
2022/03/02 00:25:28;;;;;;;0.52;0.52;;;11.70;99.90;;;;;;4996486;28;20033;-73
2022/03/02 00:27:54;;;;;;;0.10;0.10;;;11.70;99.90;;;;;;4996621;28;20026;-73
2022/03/02 00:30:21;;;;;;;0.30;0.30;;;11.70;99.90;;;;;;4996707;28;20023;-73
2022/03/02 00:32:47;;;;;;;0.00;0.00;;;11.70;99.90;;;;;;4995206;28;20038;-73
2022/03/02 00:35:13;;;;;;;0.15;0.15;;;11.70;99.90;;;;;;4996749;28;20421;-73
2022/03/02 00:37:38;;;;;;;0.32;0.32;;;11.70;99.90;;;;;;4996165;28;20026;-73
2022/03/02 00:40:05;;;;;;;0.10;0.10;;;11.70;99.90;;;;;;4995973;28;20106;-73
2022/03/02 00:42:31;;;;;;;0.40;0.40;;;11.60;99.90;;;;;;4995076;28;20035;-73
2022/03/02 00:44:57;;;;;;;0.10;0.10;;;11.60;99.90;;;;;;4996203;28;20043;-73
2022/03/02 00:47:24;;;;;;;0.20;0.20;;;11.60;99.90;;;;;;4996400;28;20026;-73
2022/03/02 00:49:50;;;;;;;1.70;0.40;;;11.60;99.90;;;;;;4995968;28;20030;-73
2022/03/02 00:52:16;;;;;;;0.00;0.00;;;11.60;99.90;;;;;;4996030;28;20030;-73
2022/03/02 00:54:41;;;;;;;0.20;0.20;;;11.50;99.90;;;;;;4995534;28;20081;-73
2022/03/02 00:57:07;;;;;;;0.47;0.10;;;11.50;99.90;;;;;;4995598;28;20520;-73
2022/03/02 00:59:33;;;;;;;0.45;0.45;;;11.50;99.90;;;;;;4994759;28;20034;-73
2022/03/02 01:01:59;;;;;;;0.57;0.47;;;11.50;99.90;;;;;;4996039;28;20030;-73
2022/03/02 01:04:24;;;;;;;0.80;0.20;;;11.50;99.90;;;;;;4995892;28;20027;-73
2022/03/02 01:06:50;;;;;;;0.15;0.08;;;11.50;99.90;;;;;;4996050;28;20030;-73
2022/03/02 01:09:16;;;;;;;1.95;0.30;;;11.50;99.90;;;;;;4995253;28;20105;-73
2022/03/02 01:11:42;;;;;;;0.90;0.88;;;11.50;99.90;;;;;;4994607;28;20026;-73
2022/03/02 01:14:08;;;;;;;0.20;0.20;;;11.60;99.90;;;;;;4996007;28;20061;-72
2022/03/02 01:16:47;;;;;;;0.45;0.25;;;11.60;99.90;;;;;;4995510;28;20037;-73
2022/03/02 01:19:13;;;;;;;0.10;0.10;;;11.60;99.90;;;;;;4995360;28;20030;-73
2022/03/02 01:21:38;;;;;;;0.25;0.25;;;11.50;99.90;;;;;;4996265;28;20033;-73
2022/03/02 01:24:04;;;;;;;0.10;0.10;;;11.50;99.90;;;;;;4995511;28;20019;-73
2022/03/02 01:26:30;;;;;;;0.60;0.60;;;11.50;99.90;;;;;;4995763;28;20046;-73
2022/03/02 01:28:56;;;;;;;0.00;0.00;;;11.50;99.90;;;;;;4995652;28;20026;-73
2022/03/02 01:31:23;;;;;;;0.20;0.20;;;11.50;99.90;;;;;;4995602;28;20042;-73
2022/03/02 01:33:50;;;;;;;0.68;0.47;;;11.50;99.90;;;;;;4995265;28;20022;-73
2022/03/02 01:36:17;;;;;;;0.52;0.50;;;11.50;99.90;;;;;;4993632;28;20092;-73
2022/03/02 01:38:42;;;;;;;0.75;0.32;;;11.50;99.90;;;;;;5009956;28;20152;-73
2022/03/02 01:41:09;;;;;;;7.38;1.20;;;11.50;99.90;;;;;;4995202;28;20505;-73
2022/03/02 01:43:34;;;;;;;0.38;0.38;;;11.60;99.90;;;;;;4994534;28;20034;-73
2022/03/02 01:46:00;;;;;;;0.20;0.20;;;11.60;99.90;;;;;;4994961;28;20478;-73
2022/03/02 01:48:26;;;;;;;10.63;2.40;;;11.60;99.90;;;;;;4995204;28;20025;-73
2022/03/02 01:50:52;;;;;;;0.15;0.15;;;11.60;99.90;;;;;;4994558;28;20105;-73
2022/03/02 01:53:17;;;;;;;0.70;0.68;;;11.60;99.90;;;;;;4994726;28;20023;-72
2022/03/02 01:55:43;;;;;;;2.30;0.85;;;11.60;99.90;;;;;;4995034;28;20065;-73
2022/03/02 01:58:09;;;;;;;0.05;0.05;;;11.60;99.90;;;;;;4994493;28;20032;-73
2022/03/02 02:00:35;;;;;;;1.05;0.88;;;11.60;99.90;;;;;;4995238;28;20413;-73
2022/03/02 02:03:01;;;;;;;1.88;1.45;;;11.50;99.90;;;;;;4994864;28;20026;-73
2022/03/02 02:05:27;;;;;;;0.15;0.15;;;11.50;99.90;;;;;;4994837;28;20076;-73
2022/03/02 02:07:52;;;;;;;0.85;0.43;;;11.50;99.90;;;;;;4994623;28;20398;-73
2022/03/02 02:10:18;;;;;;;1.00;1.00;;;11.50;99.90;;;;;;4994734;28;20038;-74
2022/03/02 02:12:44;;;;;;;1.17;0.88;;;11.60;99.90;;;;;;4994774;28;20109;-74
2022/03/02 02:15:11;;;;;;;0.00;0.00;;;11.60;99.90;;;;;;4994587;28;20077;-73
2022/03/02 02:17:38;;;;;;;0.10;0.10;;;11.70;99.90;;;;;;4994587;28;20487;-74
2022/03/02 02:20:06;;;;;;;0.00;0.00;;;11.70;99.90;;;;;;4994615;28;20069;-74
2022/03/02 02:22:36;;;;;;;0.38;0.38;;;11.70;99.90;;;;;;4993981;28;20489;-74
2022/03/02 02:25:03;;;;;;;0.05;0.05;;;11.60;99.90;;;;;;4993073;28;20147;-74
2022/03/02 02:27:29;;;;;;;0.80;0.80;;;11.60;99.90;;;;;;4992957;28;20121;-74
2022/03/02 02:29:56;;;;;;;2.17;0.95;;;11.60;99.90;;;;;;4994755;28;20026;-73
2022/03/02 02:32:22;;;;;;;1.17;0.90;;;11.50;99.90;;;;;;4994810;28;20034;-74
2022/03/02 02:34:47;;;;;;;0.05;0.05;;;11.50;99.90;;;;;;4994816;28;20033;-73
2022/03/02 02:37:13;;;;;;;0.88;0.50;;;11.50;99.90;;;;;;4994134;28;20378;-73
2022/03/02 02:39:39;;;;;;;0.20;0.20;;;11.50;99.90;;;;;;4993974;28;20489;-73
2022/03/02 02:42:07;;;;;;;0.10;0.10;;;11.50;99.90;;;;;;4991002;28;20026;-74
2022/03/02 02:44:34;;;;;;;2.00;1.30;;;11.40;99.90;;;;;;4975037;28;20043;-73
2022/03/02 02:47:02;;;;;;;0.00;0.00;;;11.40;99.90;;;;;;4974764;28;20019;-74
2022/03/02 02:49:28;;;;;;;0.03;0.03;;;11.30;99.90;;;;;;4982575;28;20557;-73
2022/03/02 02:51:54;;;;;;;0.00;0.00;;;11.30;99.90;;;;;;4993830;28;20058;-73
2022/03/02 02:54:21;;;;;;;1.45;0.70;;;11.30;99.90;;;;;;4993791;28;20402;-74
2022/03/02 02:56:47;;;;;;;0.00;0.00;;;11.30;99.90;;;;;;4992911;28;20073;-74
2022/03/02 02:59:13;;;;;;;2.80;1.33;;;11.30;99.90;;;;;;4993023;28;20070;-74
2022/03/02 03:01:38;;;;;;;3.30;1.60;;;11.20;99.90;;;;;;4994262;28;20018;-74
2022/03/02 03:04:06;;;;;;;3.83;1.55;;;11.20;99.90;;;;;;4992588;28;20040;-74
2022/03/02 03:06:33;;;;;;;0.35;0.30;;;11.20;99.90;;;;;;4994132;28;20031;-74
2022/03/02 03:09:01;;;;;;;0.47;0.13;;;11.10;99.90;;;;;;4993470;28;20101;-74
2022/03/02 03:11:27;;;;;;;0.10;0.10;;;11.10;99.90;;;;;;4993757;28;20058;-74
2022/03/02 03:13:52;;;;;;;2.30;1.30;;;11.10;99.90;;;;;;4993948;28;20453;-74
2022/03/02 03:16:18;;;;;;;0.00;0.00;;;11.10;99.90;;;;;;4992459;28;20026;-74
2022/03/02 03:18:44;;;;;;;4.40;0.98;;;11.10;99.90;;;;;;4993566;28;20030;-74
2022/03/02 03:21:10;;;;;;;0.40;0.40;;;11.10;99.90;;;;;;4993735;28;20112;-74
2022/03/02 03:23:35;;;;;;;0.10;0.10;;;11.00;99.90;;;;;;4993744;28;20394;-74
2022/03/02 03:26:01;;;;;;;0.47;0.47;;;11.00;99.90;;;;;;4993621;28;20035;-74
2022/03/02 03:28:27;;;;;;;0.17;0.17;;;11.00;99.90;;;;;;4993732;28;20514;-74
2022/03/02 03:30:53;;;;;;;0.90;0.90;;;11.00;99.90;;;;;;4993241;28;20034;-74
2022/03/02 03:33:18;;;;;;;2.15;1.35;;;10.90;99.90;;;;;;4993894;28;20046;-73
2022/03/02 03:35:44;;;;;;;2.85;0.43;;;10.90;99.90;;;;;;4993696;28;20022;-74
2022/03/02 03:38:10;;;;;;;0.10;0.10;;;10.90;99.90;;;;;;4993796;28;20054;-74
2022/03/02 03:40:36;;;;;;;0.00;0.00;;;10.80;99.90;;;;;;4993511;28;20027;-74
2022/03/02 03:43:02;;;;;;;0.30;0.30;;;10.80;99.90;;;;;;4982726;28;20509;-74
2022/03/02 03:45:27;;;;;;;0.55;0.15;;;10.80;99.90;;;;;;4974618;28;20054;-74
2022/03/02 03:47:53;;;;;;;0.77;0.52;;;10.80;99.90;;;;;;4974010;28;20038;-74
2022/03/02 03:50:20;;;;;;;0.63;0.63;;;10.70;99.90;;;;;;4988690;28;20027;-74
2022/03/02 03:52:46;;;;;;;0.00;0.00;;;10.70;99.90;;;;;;4993422;28;20030;-74
2022/03/02 03:55:13;;;;;;;0.25;0.25;;;10.60;99.90;;;;;;4992977;28;20034;-74
2022/03/02 03:57:40;;;;;;;0.57;0.57;;;10.60;99.90;;;;;;4993707;28;20051;-74
2022/03/02 04:00:10;;;;;;;0.20;0.20;;;10.60;99.90;;;;;;4992792;28;20030;-73
2022/03/02 04:02:36;;;;;;;0.60;0.60;;;10.50;99.90;;;;;;4993274;28;20041;-74
2022/03/02 04:05:02;;;;;;;1.80;1.25;;;10.60;99.90;;;;;;4993470;28;20482;-74
2022/03/02 04:07:27;;;;;;;0.93;0.80;;;10.50;99.90;;;;;;4994369;28;20022;-74
2022/03/02 04:09:53;;;;;;;0.10;0.10;;;10.50;99.90;;;;;;4996514;28;20034;-74
2022/03/02 04:12:19;;;;;;;1.25;1.10;;;10.40;99.90;;;;;;4996490;28;20030;-74
2022/03/02 04:14:45;;;;;;;1.27;0.68;;;10.40;99.90;;;;;;4996888;28;20034;-74
2022/03/02 04:17:11;;;;;;;0.60;0.30;;;10.40;99.90;;;;;;4996505;28;20489;-74
2022/03/02 04:19:37;;;;;;;0.00;0.00;;;10.40;99.90;;;;;;4996643;28;20398;-74
2022/03/02 04:22:04;;;;;;;0.10;0.10;;;10.40;99.90;;;;;;4997111;28;20023;-74
2022/03/02 04:24:30;;;;;;;0.30;0.30;;;10.40;99.90;;;;;;4996615;28;20042;-74
2022/03/02 04:26:55;;;;;;;0.17;0.17;;;10.30;99.90;;;;;;4996908;28;20030;-74
2022/03/02 04:29:21;;;;;;;1.23;0.88;;;10.30;99.90;;;;;;4996725;28;20046;-74
2022/03/02 04:31:47;;;;;;;0.30;0.30;;;10.30;99.90;;;;;;4996781;28;20104;-74
2022/03/02 04:34:13;;;;;;;0.00;0.00;;;10.30;99.90;;;;;;4996690;28;20034;-74
2022/03/02 04:36:38;;;;;;;0.60;0.60;;;10.30;99.90;;;;;;4996594;28;20022;-74
2022/03/02 04:39:04;;;;;;;0.20;0.20;;;10.30;99.90;;;;;;4996320;28;20049;-73
2022/03/02 04:41:30;;;;;;;1.98;0.55;;;10.30;99.90;;;;;;4995746;28;20022;-73
2022/03/02 04:43:55;;;;;;;0.00;0.00;;;10.30;99.90;;;;;;4996009;28;20577;-73
2022/03/02 04:46:21;;;;;;;3.78;0.50;;;10.30;99.90;;;;;;4996349;28;20038;-74
2022/03/02 04:48:47;;;;;;;0.25;0.25;;;10.30;99.90;;;;;;4995701;28;20102;-73
2022/03/02 04:51:13;;;;;;;0.38;0.22;;;10.30;99.90;;;;;;4996169;28;20089;-73
2022/03/02 04:53:38;;;;;;;0.00;0.00;;;10.20;99.90;;;;;;4995841;28;20441;-74
2022/03/02 04:56:05;;;;;;;0.52;0.45;;;10.20;99.90;;;;;;4996754;28;20026;-74
2022/03/02 04:58:30;;;;;;;1.17;0.55;;;10.20;99.90;;;;;;4995022;28;20031;-74
2022/03/02 05:00:56;;;;;;;1.15;0.90;;;10.20;99.90;;;;;;4994338;28;20029;-74
2022/03/02 05:03:22;;;;;;;0.17;0.17;;;10.20;99.90;;;;;;4995845;28;20025;-73
2022/03/02 05:05:47;;;;;;;0.35;0.35;;;10.20;99.90;;;;;;4996184;28;20026;-73
2022/03/02 05:08:13;;;;;;;0.13;0.10;;;10.20;99.90;;;;;;4995636;28;20031;-74
2022/03/02 05:10:38;;;;;;;0.10;0.10;;;10.20;99.90;;;;;;4995983;28;20034;-73
2022/03/02 05:13:04;;;;;;;1.77;1.10;;;10.20;99.90;;;;;;4995739;28;20110;-73
2022/03/02 05:15:30;;;;;;;1.88;1.00;;;10.20;99.90;;;;;;4995210;28;20494;-74
2022/03/02 05:17:56;;;;;;;0.17;0.17;;;10.20;99.90;;;;;;4995421;28;20030;-74
2022/03/02 05:20:22;;;;;;;2.92;0.52;;;10.20;99.90;;;;;;4994880;28;20061;-74
2022/03/02 05:22:49;;;;;;;0.10;0.10;;;10.10;99.90;;;;;;4995902;28;20083;-74
2022/03/02 05:25:18;;;;;;;0.43;0.40;;;10.10;99.90;;;;;;4995344;28;20042;-73
2022/03/02 05:27:45;;;;;;;5.20;0.50;;;10.10;99.90;;;;;;4995398;28;20023;-73
2022/03/02 05:30:12;;;;;;;0.90;0.57;;;10.10;99.90;;;;;;4995384;28;20030;-74
2022/03/02 05:32:40;;;;;;;0.32;0.22;;;10.00;99.90;;;;;;4995628;28;20031;-73
2022/03/02 05:35:06;;;;;;;0.10;0.10;;;10.00;99.90;;;;;;4995363;28;20110;-74
2022/03/02 05:37:34;;;;;;;0.55;0.55;;;10.00;99.90;;;;;;4994131;28;20031;-74
2022/03/02 05:40:00;;;;;;;0.60;0.60;;;10.00;99.90;;;;;;4995125;28;20026;-74
2022/03/02 05:42:26;;;;;;;0.60;0.60;;;10.00;99.90;;;;;;4995340;28;20019;-73
2022/03/02 05:44:51;;;;;;;0.68;0.55;;;10.00;99.90;;;;;;4994985;28;20046;-74
2022/03/02 05:47:17;;;;;;;0.20;0.20;;;10.00;99.90;;;;;;4993776;28;20498;-74
2022/03/02 05:49:43;;;;;;;1.30;1.20;;;10.00;99.90;;;;;;4994944;28;20069;-74
2022/03/02 05:52:08;;;;;;;1.55;0.47;;;10.00;99.90;;;;;;4990924;28;20034;-74
2022/03/02 05:54:34;;;;;;;0.38;0.10;;;10.00;99.90;;;;;;4994313;28;20022;-74
2022/03/02 05:56:59;;;;;;;0.00;0.00;;;9.90;99.90;;;;;;4994591;28;20034;-72
2022/03/02 05:59:25;;;;;;;5.05;1.17;;;9.90;99.90;;;;;;4994028;28;20106;-72
2022/03/02 06:01:51;;;;;;;0.35;0.35;;;9.90;99.90;;;;;;4994245;28;20539;-73
2022/03/02 06:04:16;;;;;;;1.55;1.02;;;9.90;99.90;;;;;;4994771;28;20072;-75
2022/03/02 06:06:42;;;;;;;0.50;0.45;;;9.80;99.90;;;;;;4994947;28;20026;-73
2022/03/02 06:09:10;;;;;;;0.00;0.00;;;9.80;99.90;;;;;;4994377;28;20397;-73
2022/03/02 06:11:37;;;;;;;4.03;1.75;;;9.80;99.90;;;;;;4994460;28;20018;-73
2022/03/02 06:14:04;;;;;;;0.85;0.73;;;9.80;99.90;;;;;;4994262;28;20096;-73
2022/03/02 06:16:29;;;;;;;2.00;0.85;;;9.70;99.90;;;;;;4994045;28;20486;-75
2022/03/02 06:18:55;;;;;;;0.08;0.08;;;9.70;99.90;;;;;;4992111;28;20033;-75
2022/03/02 06:21:32;;;;;;;0.28;0.20;;;9.70;99.90;;;;;;4985119;28;20105;-74
2022/03/02 06:24:01;;;;;;;0.03;0.03;;;9.60;99.90;;;;;;4992852;28;20029;-73
2022/03/02 06:26:27;;;;;;;0.20;0.20;;;9.60;99.90;;;;;;4993885;28;20030;-74
2022/03/02 06:28:53;;;;;;;0.75;0.57;;;9.50;99.90;;;;;;4992330;28;20413;-74
2022/03/02 06:31:19;;;;;;;0.47;0.47;;;9.40;99.90;;;;;;4992049;28;20101;-74
2022/03/02 06:33:45;;;;;;;0.20;0.20;;;9.30;99.90;;;;;;4993811;28;20105;-74
2022/03/02 06:36:12;;;;;;;1.00;0.43;;;9.30;99.90;;;;;;4984325;28;20035;-74
2022/03/02 06:38:37;;;;;;;0.60;0.60;;;9.20;99.90;;;;;;4993243;28;20026;-74
2022/03/02 06:41:25;;;;;;;0.10;0.10;;;9.20;99.90;;;;;;4991516;28;20029;-74
2022/03/02 06:44:04;;;;;;;1.55;0.52;;;9.10;99.90;;;;;;4992333;28;20125;-74
2022/03/02 06:46:32;;;;;;;0.10;0.10;;;9.10;99.90;;;;;;4993391;28;20010;-73
2022/03/02 06:49:23;;;;;;;0.00;0.00;;;9.10;99.90;;;;;;4992392;28;20034;-73
2022/03/02 06:51:53;;;;;;;2.35;1.73;;;9.10;99.90;;;;;;4993140;28;20109;-73
2022/03/02 06:54:27;;;;;;;0.75;0.75;;;9.10;99.90;;;;;;4993180;28;20490;-73
2022/03/02 06:56:57;;;;;;;0.98;0.98;;;9.10;99.90;;;;;;4992105;28;20482;-73
2022/03/02 06:59:38;;;;;;;0.90;0.57;;;9.00;99.90;;;;;;4997129;28;20039;-74
2022/03/02 07:02:05;;;;;;;0.65;0.65;;;9.00;99.90;;;;;;4989431;28;20054;-74
2022/03/02 07:04:39;;;;;;;0.32;0.32;;;9.00;99.90;;;;;;4993187;28;20029;-74
2022/03/02 07:07:05;;;;;;;1.70;1.60;;;9.00;99.90;;;;;;4993069;28;20037;-74
2022/03/02 07:09:33;;;;;;;0.60;0.60;;;8.90;99.90;;;;;;4998104;28;20458;-74
2022/03/02 07:12:00;;;;;;;0.55;0.55;;;8.90;99.90;;;;;;4982797;28;20056;-74
2022/03/02 07:14:29;;;;;;;2.53;1.75;;;8.90;99.90;;;;;;4989661;28;20030;-74
2022/03/02 07:16:57;;;;;;;0.28;0.28;;;8.90;99.90;;;;;;4989532;28;20053;-74
2022/03/02 07:19:24;;;;;;;7.32;3.08;;;8.90;99.90;;;;;;5006712;28;20011;-75
2022/03/02 07:21:50;;;;;;;0.00;0.00;;;8.90;99.90;;;;;;4988494;28;20022;-74
2022/03/02 07:24:19;;;;;;;0.20;0.20;;;8.80;99.90;;;;;;4987520;28;20101;-74
2022/03/02 07:26:55;;;;;;;0.03;0.03;;;8.80;99.90;;;;;;4989489;28;20042;-74
2022/03/02 07:29:23;;;;;;;4.15;0.30;;;8.80;99.90;;;;;;4987687;28;21634;-75
2022/03/02 07:31:51;;;;;;;0.00;0.00;;;8.80;99.90;;;;;;4987470;28;20072;-74
2022/03/02 07:34:18;;;;;;;1.30;0.93;;;8.80;99.90;;;;;;4974059;28;20031;-74
2022/03/02 07:36:44;;;;;;;0.32;0.32;;;8.80;99.90;;;;;;4989612;28;20101;-74
2022/03/02 07:39:10;;;;;;;0.63;0.63;;;8.90;99.90;;;;;;4983711;28;20146;-74
2022/03/02 07:41:36;;;;;;;0.70;0.70;;;8.80;99.90;;;;;;4991737;28;20073;-74
2022/03/02 07:44:03;;;;;;;0.20;0.20;;;8.90;99.90;;;;;;4987712;28;20051;-74
2022/03/02 07:46:29;;;;;;;0.52;0.52;;;8.90;99.90;;;;;;4991366;28;20023;-74
2022/03/02 07:48:56;;;;;;;0.90;0.90;;;8.90;99.90;;;;;;4992436;28;20521;-75
2022/03/02 07:51:23;;;;;;;0.10;0.10;;;9.00;99.90;;;;;;4991651;28;20085;-75
2022/03/02 07:53:50;;;;;;;1.35;0.43;;;9.00;99.90;;;;;;4993013;28;20050;-74
2022/03/02 07:56:18;;;;;;;1.35;1.25;;;9.00;99.90;;;;;;4994275;28;20482;-75
2022/03/02 07:58:43;;;;;;;0.65;0.65;;;9.00;99.90;;;;;;4993841;28;20026;-75
2022/03/02 08:01:14;;;;;;;0.85;0.85;;;9.00;99.90;;;;;;4994500;28;20022;-75
2022/03/02 08:03:43;;;;;;;1.05;0.30;;;9.00;99.90;;;;;;4993298;28;20022;-75
2022/03/02 08:06:08;;;;;;;0.47;0.47;;;9.00;99.90;;;;;;4991360;28;20080;-76
2022/03/02 08:08:35;;;;;;;0.10;0.10;;;9.00;99.90;;;;;;4996176;28;20026;-76
2022/03/02 08:11:02;;;;;;;0.00;0.00;;;9.00;99.90;;;;;;5028071;28;20461;-74
2022/03/02 08:13:31;;;;;;;0.13;0.13;;;9.00;99.90;;;;;;5006236;28;20026;-74
2022/03/02 08:15:57;;;;;;;0.40;0.40;;;9.00;99.90;;;;;;5014276;28;20054;-75
2022/03/02 08:18:23;;;;;;;0.57;0.52;;;9.10;99.90;;;;;;4993752;28;20434;-76
2022/03/02 08:20:51;;;;;;;0.30;0.30;;;9.10;99.90;;;;;;4985115;28;20034;-75
2022/03/02 08:23:21;;;;;;;0.17;0.17;;;9.20;99.90;;;;;;4990663;28;20054;-75
2022/03/02 08:25:50;;;;;;;0.68;0.50;;;9.20;99.90;;;;;;4987732;28;20085;-75
2022/03/02 08:28:19;;;;;;;1.13;1.13;;;9.30;99.90;;;;;;4976038;28;20030;-75
2022/03/02 08:30:48;;;;;;;3.80;1.33;;;9.40;99.90;;;;;;4986695;28;20054;-76
2022/03/02 08:33:26;;;;;;;3.95;0.90;;;9.40;99.90;;;;;;4984832;28;20038;-75
2022/03/02 08:35:53;;;;;;;2.50;1.10;;;9.60;99.90;;;;;;4981194;28;20488;-75
2022/03/02 08:38:19;;;;;;;0.13;0.13;;;9.60;99.90;;;;;;4984970;28;20023;-75
2022/03/02 08:40:45;;;;;;;1.40;0.63;;;9.80;99.90;;;;;;4983348;28;20041;-74
2022/03/02 08:43:15;;;;;;;0.98;0.98;;;9.90;99.90;;;;;;4981306;28;20148;-75
2022/03/02 08:45:46;;;;;;;0.47;0.38;;;9.90;99.90;;;;;;4981275;28;20035;-75
2022/03/02 08:48:14;;;;;;;0.45;0.45;;;9.90;99.90;;;;;;4989462;28;20034;-75
2022/03/02 08:50:41;;;;;;;0.10;0.10;;;10.00;99.90;;;;;;4992142;28;20783;-75
2022/03/02 08:53:07;;;;;;;0.45;0.45;;;10.00;99.90;;;;;;4992698;28;20039;-75
2022/03/02 08:55:33;;;;;;;0.40;0.40;;;10.10;99.90;;;;;;4992777;28;20034;-75
2022/03/02 08:58:00;;;;;;;0.13;0.13;;;10.20;99.90;;;;;;4989647;28;20058;-75
2022/03/02 09:00:26;;;;;;;0.28;0.28;;;10.30;99.90;;;;;;4990668;28;20462;-74
2022/03/02 09:02:55;;;;;;;3.55;0.88;;;10.30;99.90;;;;;;4983538;28;20054;-74
2022/03/02 09:05:22;;;;;;;1.20;0.30;;;10.30;99.90;;;;;;4993982;28;20030;-74
2022/03/02 09:07:47;;;;;;;0.75;0.75;;;10.30;99.90;;;;;;4989719;28;20049;-75
2022/03/02 09:10:13;;;;;;;0.50;0.50;;;10.30;99.90;;;;;;4993474;28;20031;-75
2022/03/02 09:12:42;;;;;;;1.08;0.98;;;10.30;99.90;;;;;;4992023;28;20152;-75
2022/03/02 09:15:09;;;;;;;2.75;1.00;;;10.30;99.90;;;;;;4987853;28;20411;-75
2022/03/02 09:17:35;;;;;;;0.00;0.00;;;10.30;99.90;;;;;;4976547;28;20414;-75
2022/03/02 09:20:01;;;;;;;3.10;1.20;;;10.30;99.90;;;;;;4989418;28;20057;-75
2022/03/02 09:22:27;;;;;;;0.20;0.20;;;10.40;99.90;;;;;;4987319;28;20050;-75
2022/03/02 09:24:53;;;;;;;1.05;0.95;;;10.50;99.90;;;;;;4991630;28;20401;-75
2022/03/02 09:27:20;;;;;;;1.83;1.35;;;10.50;99.90;;;;;;4986004;28;20030;-75
2022/03/02 09:29:47;;;;;;;0.40;0.40;;;10.60;99.90;;;;;;4994072;28;20041;-75
2022/03/02 09:32:14;;;;;;;0.10;0.10;;;10.70;99.90;;;;;;4991891;28;20441;-75
2022/03/02 09:34:46;;;;;;;2.22;1.13;;;10.80;99.90;;;;;;4988028;28;20092;-75
2022/03/02 09:37:14;;;;;;;1.88;1.55;;;10.80;99.90;;;;;;4991311;28;20022;-75
2022/03/02 09:39:42;;;;;;;0.13;0.13;;;11.10;99.90;;;;;;4993594;28;20042;-75
2022/03/02 09:42:30;;;;;;;1.10;0.73;;;11.30;99.90;;;;;;4985867;28;20028;-74
2022/03/02 09:45:08;;;;;;;2.25;0.77;;;11.60;99.90;;;;;;4991292;28;20058;-75
2022/03/02 09:47:36;;;;;;;0.40;0.40;;;11.90;99.90;;;;;;4982026;28;20018;-75
2022/03/02 09:50:03;;;;;;;0.73;0.73;;;12.10;99.90;;;;;;4986008;28;20034;-75
2022/03/02 09:52:30;;;;;;;0.32;0.20;;;12.10;99.90;;;;;;4978541;28;20127;-75
2022/03/02 09:54:58;;;;;;;1.42;0.75;;;12.10;99.90;;;;;;4988378;28;20030;-75
2022/03/02 09:57:24;;;;;;;0.20;0.20;;;12.20;99.90;;;;;;4987440;28;20523;-74
2022/03/02 09:59:55;;;;;;;0.90;0.20;;;12.00;99.90;;;;;;4980655;28;20030;-74
2022/03/02 10:02:40;;;;;;;0.40;0.40;;;11.90;99.90;;;;;;4992941;28;20042;-74
2022/03/02 10:05:09;;;;;;;0.20;0.20;;;11.80;99.90;;;;;;4985476;28;20026;-74
2022/03/02 10:07:40;;;;;;;11.18;1.13;;;11.70;99.90;;;;;;4977263;28;20054;-74
2022/03/02 10:10:11;;;;;;;1.33;1.23;;;11.70;99.90;;;;;;4986119;28;20034;-74
2022/03/02 10:12:38;;;;;;;1.70;0.98;;;12.00;99.90;;;;;;4994573;28;20041;-74
2022/03/02 10:15:09;;;;;;;1.70;0.88;;;12.10;99.90;;;;;;4989861;28;20088;-74
2022/03/02 10:17:37;;;;;;;1.65;0.22;;;12.30;99.90;;;;;;4986549;28;20114;-73
2022/03/02 10:20:07;;;;;;;3.85;1.17;;;12.50;99.90;;;;;;4990616;28;20034;-74
2022/03/02 10:23:05;;;;;;;0.45;0.10;;;12.60;99.90;;;;;;4982414;28;21169;-74
2022/03/02 10:25:42;;;;;;;0.10;0.10;;;13.00;99.90;;;;;;4984799;28;20069;-74
2022/03/02 10:28:08;;;;;;;0.75;0.75;;;12.90;99.90;;;;;;4981357;28;20026;-74
2022/03/02 10:30:39;;;;;;;1.85;1.50;;;12.80;99.90;;;;;;4989584;28;20363;-74
2022/03/02 10:33:21;;;;;;;1.02;0.50;;;13.20;99.90;;;;;;4976631;28;20394;-74
2022/03/02 10:36:06;;;;;;;0.50;0.50;;;13.40;99.90;;;;;;4986761;28;20038;-73
2022/03/02 10:38:38;;;;;;;0.32;0.32;;;13.40;99.90;;;;;;4984924;28;20509;-74
2022/03/02 10:41:08;;;;;;;0.85;0.85;;;13.10;99.90;;;;;;4984004;28;20031;-73
2022/03/02 10:43:40;;;;;;;0.68;0.68;;;13.00;99.90;;;;;;4983204;28;20058;-73
2022/03/02 10:46:09;;;;;;;3.40;0.82;;;13.00;99.90;;;;;;4986169;28;20030;-73
2022/03/02 10:48:48;;;;;;;0.77;0.77;;;13.10;99.90;;;;;;4979949;28;20032;-73
2022/03/02 10:51:15;;;;;;;3.15;1.55;;;13.30;99.90;;;;;;4984370;28;20041;-73
2022/03/02 10:53:44;;;;;;;0.82;0.82;;;13.60;99.90;;;;;;4982900;28;20521;-73
2022/03/02 10:56:13;;;;;;;5.28;0.93;;;13.70;99.90;;;;;;4984302;28;20033;-73
2022/03/02 10:58:39;;;;;;;8.70;0.60;;;13.70;99.90;;;;;;4988998;28;20021;-73
2022/03/02 11:01:05;;;;;;;1.20;1.10;;;13.80;99.90;;;;;;4995297;28;20030;-73
2022/03/02 11:03:37;;;;;;;0.13;0.05;;;13.70;99.90;;;;;;4986191;28;20048;-73
2022/03/02 11:06:06;;;;;;;1.27;0.40;;;13.70;99.90;;;;;;4990645;28;20501;-74
2022/03/02 11:08:36;;;;;;;0.70;0.70;;;13.80;99.90;;;;;;4978157;28;20042;-74
2022/03/02 11:11:05;;;;;;;5.53;1.45;;;13.80;99.90;;;;;;5021611;28;20533;-72
2022/03/02 11:13:31;;;;;;;3.55;1.60;;;13.60;99.90;;;;;;4982654;28;20505;-73
2022/03/02 11:15:58;;;;;;;1.77;0.32;;;13.40;99.90;;;;;;4981555;28;20101;-71
2022/03/02 11:18:38;;;;;;;0.68;0.52;;;13.20;99.90;;;;;;4982711;28;20034;-72
2022/03/02 11:21:08;;;;;;;0.45;0.45;;;12.90;99.90;;;;;;4988832;28;20042;-71
2022/03/02 11:23:44;;;;;;;0.20;0.20;;;12.70;99.90;;;;;;4980107;28;20054;-72
2022/03/02 11:26:18;;;;;;;0.20;0.20;;;12.70;99.90;;;;;;4991885;28;20038;-72
2022/03/02 11:28:46;;;;;;;0.15;0.15;;;12.60;99.90;;;;;;4989423;28;20041;-72
2022/03/02 11:31:18;;;;;;;0.70;0.70;;;12.50;99.90;;;;;;4991677;28;20510;-71
2022/03/02 11:33:44;;;;;;;0.47;0.47;;;12.50;99.90;;;;;;4982347;28;20061;-73
2022/03/02 11:36:13;;;;;;;0.40;0.40;;;12.50;99.90;;;;;;4992009;28;20102;-73
2022/03/02 11:38:42;;;;;;;0.40;0.40;;;12.50;99.90;;;;;;4975391;28;20070;-74
2022/03/02 11:41:11;;;;;;;0.25;0.25;;;12.50;99.90;;;;;;4975633;28;20031;-74
2022/03/02 11:43:37;;;;;;;1.40;1.15;;;12.50;99.90;;;;;;4980680;28;20110;-74
2022/03/02 11:46:09;;;;;;;2.47;0.95;;;12.50;99.90;;;;;;4991870;28;20033;-71
2022/03/02 11:48:38;;;;;;;2.53;1.23;;;12.40;99.90;;;;;;4990990;28;20034;-71
2022/03/02 11:51:21;;;;;;;1.42;1.33;;;12.30;99.90;;;;;;4991160;28;20077;-73
2022/03/02 11:53:51;;;;;;;1.25;1.15;;;12.20;99.90;;;;;;4980189;28;20026;-73
2022/03/02 11:56:20;;;;;;;0.65;0.65;;;12.10;99.90;;;;;;4982294;28;20035;-73
2022/03/02 11:59:06;;;;;;;1.60;0.77;;;12.20;99.90;;;;;;4988387;28;20026;-73
2022/03/02 12:01:55;;;;;;;24.38;2.08;;;12.30;99.90;;;;;;4989136;28;20036;-73
2022/03/02 12:04:21;;;;;;;1.60;0.47;;;12.30;99.90;;;;;;4977501;28;20068;-74
2022/03/02 12:06:50;;;;;;;0.47;0.47;;;12.30;99.90;;;;;;4978105;28;20431;-72
2022/03/02 12:09:38;;;;;;;0.63;0.63;;;12.30;99.90;;;;;;4990597;28;20102;-73
2022/03/02 12:12:15;;;;;;;2.33;2.13;;;12.20;99.90;;;;;;4982425;28;20478;-73
2022/03/02 12:14:53;;;;;;;0.52;0.40;;;12.20;99.90;;;;;;4991122;28;20026;-73
2022/03/02 12:17:29;;;;;;;0.22;0.22;;;12.20;99.90;;;;;;4990241;28;20026;-73
2022/03/02 12:20:01;;;;;;;1.95;0.75;;;12.30;99.90;;;;;;4986964;28;20034;-74
2022/03/02 12:22:48;;;;;;;7.97;2.13;;;12.50;99.90;;;;;;4990783;28;20018;-73
2022/03/02 12:25:17;;;;;;;2.63;0.22;;;12.50;99.90;;;;;;4990725;28;20088;-71
2022/03/02 12:27:57;;;;;;;0.47;0.30;;;12.70;99.90;;;;;;4991138;28;20018;-71
2022/03/02 12:30:23;;;;;;;1.65;1.25;;;12.80;99.90;;;;;;4994413;28;20054;-71
2022/03/02 12:32:53;;;;;;;0.05;0.05;;;13.10;99.90;;;;;;4993349;28;20560;-72
2022/03/02 12:35:23;;;;;;;3.70;1.60;;;13.10;99.90;;;;;;4992093;28;20137;-71
2022/03/02 12:37:54;;;;;;;0.90;0.90;;;13.00;99.90;;;;;;4994624;28;20026;-70
2022/03/02 12:40:20;;;;;;;0.60;0.60;;;13.00;99.90;;;;;;4994091;28;20034;-70
2022/03/02 12:42:49;;;;;;;1.08;0.95;;;13.00;99.90;;;;;;4989507;28;20027;-70
2022/03/02 12:45:15;;;;;;;0.20;0.20;;;13.00;99.90;;;;;;4973723;28;20047;-71
2022/03/02 12:47:42;;;;;;;0.47;0.47;;;13.00;99.90;;;;;;4992087;28;20375;-71
2022/03/02 12:50:10;;;;;;;0.10;0.10;;;13.00;99.90;;;;;;4986828;28;20121;-70
2022/03/02 12:52:36;;;;;;;0.30;0.30;;;13.20;99.90;;;;;;4992672;28;20383;-71